Terminal Aerodrome Forecast
Issued by NWS Grand Forks, ND

Home | Current Version | Previous Version | Text Only | Print | Product List | Glossary On
Versions: 1 2 3 4 5 6 7 8 9 10 11 12 13 14
000
FTUS43 KFGF 212300
TAFFAR
TAF
KFAR 212333Z 2200/2224 16015KT P6SM OVC007
     FM220400 14010KT 4SM BR OVC005
     FM221300 10010KT 1SM -RA BR OVC003=

USA.gov is the U.S. government's official web portal to all federal, state and local government web resources and services.